sensor_id;sensor_type;location;lat;lon;timestamp;P1;durP1;ratioP1;P2;durP2;ratioP2
41343;SDS011;27089;50.022;7.604;2023-07-29T00:01:56;4.87;;;3.83;;
41343;SDS011;27089;50.022;7.604;2023-07-29T00:04:23;4.67;;;3.63;;
41343;SDS011;27089;50.022;7.604;2023-07-29T00:06:50;5.13;;;4.07;;
41343;SDS011;27089;50.022;7.604;2023-07-29T00:09:17;4.17;;;3.77;;
41343;SDS011;27089;50.022;7.604;2023-07-29T00:11:45;5.27;;;4.17;;
41343;SDS011;27089;50.022;7.604;2023-07-29T00:14:13;5.20;;;4.10;;
41343;SDS011;27089;50.022;7.604;2023-07-29T00:16:40;4.93;;;4.43;;
41343;SDS011;27089;50.022;7.604;2023-07-29T00:19:07;4.67;;;4.27;;
41343;SDS011;27089;50.022;7.604;2023-07-29T00:21:34;5.27;;;4.30;;
41343;SDS011;27089;50.022;7.604;2023-07-29T00:24:01;5.43;;;4.10;;
41343;SDS011;27089;50.022;7.604;2023-07-29T00:26:28;5.20;;;4.17;;
41343;SDS011;27089;50.022;7.604;2023-07-29T00:28:55;6.63;;;4.50;;
41343;SDS011;27089;50.022;7.604;2023-07-29T00:31:24;6.10;;;4.93;;
41343;SDS011;27089;50.022;7.604;2023-07-29T00:33:51;4.30;;;3.90;;
41343;SDS011;27089;50.022;7.604;2023-07-29T00:36:18;5.23;;;4.70;;
41343;SDS011;27089;50.022;7.604;2023-07-29T00:38:45;8.43;;;4.40;;
41343;SDS011;27089;50.022;7.604;2023-07-29T00:41:12;5.83;;;4.30;;
41343;SDS011;27089;50.022;7.604;2023-07-29T00:43:40;4.80;;;4.20;;
41343;SDS011;27089;50.022;7.604;2023-07-29T00:46:08;6.37;;;4.60;;
41343;SDS011;27089;50.022;7.604;2023-07-29T00:48:39;5.33;;;4.70;;
41343;SDS011;27089;50.022;7.604;2023-07-29T00:51:06;5.33;;;4.90;;
41343;SDS011;27089;50.022;7.604;2023-07-29T00:53:33;6.63;;;5.23;;
41343;SDS011;27089;50.022;7.604;2023-07-29T00:56:01;6.13;;;5.53;;
41343;SDS011;27089;50.022;7.604;2023-07-29T00:58:28;6.83;;;6.03;;
41343;SDS011;27089;50.022;7.604;2023-07-29T01:00:55;8.27;;;6.30;;
41343;SDS011;27089;50.022;7.604;2023-07-29T01:03:23;8.60;;;7.70;;
41343;SDS011;27089;50.022;7.604;2023-07-29T01:05:54;10.33;;;7.93;;
41343;SDS011;27089;50.022;7.604;2023-07-29T01:08:29;8.43;;;7.63;;
41343;SDS011;27089;50.022;7.604;2023-07-29T01:11:03;8.30;;;7.10;;
41343;SDS011;27089;50.022;7.604;2023-07-29T01:13:44;8.70;;;7.80;;
41343;SDS011;27089;50.022;7.604;2023-07-29T01:16:19;10.20;;;7.27;;
41343;SDS011;27089;50.022;7.604;2023-07-29T01:18:52;8.83;;;7.57;;
41343;SDS011;27089;50.022;7.604;2023-07-29T01:21:23;8.50;;;7.53;;
41343;SDS011;27089;50.022;7.604;2023-07-29T01:23:56;8.57;;;7.40;;
41343;SDS011;27089;50.022;7.604;2023-07-29T01:26:26;8.20;;;7.00;;
41343;SDS011;27089;50.022;7.604;2023-07-29T01:28:54;7.47;;;6.77;;
41343;SDS011;27089;50.022;7.604;2023-07-29T01:31:23;7.57;;;6.90;;
41343;SDS011;27089;50.022;7.604;2023-07-29T01:33:58;7.50;;;6.80;;
41343;SDS011;27089;50.022;7.604;2023-07-29T01:36:32;7.30;;;6.70;;
41343;SDS011;27089;50.022;7.604;2023-07-29T01:39:06;7.03;;;6.37;;
41343;SDS011;27089;50.022;7.604;2023-07-29T01:41:33;6.60;;;5.90;;
41343;SDS011;27089;50.022;7.604;2023-07-29T01:44:01;6.87;;;6.03;;
41343;SDS011;27089;50.022;7.604;2023-07-29T01:46:29;6.57;;;5.63;;
41343;SDS011;27089;50.022;7.604;2023-07-29T01:48:59;5.90;;;5.33;;
41343;SDS011;27089;50.022;7.604;2023-07-29T01:51:26;6.33;;;5.47;;
41343;SDS011;27089;50.022;7.604;2023-07-29T01:53:53;9.10;;;6.10;;
41343;SDS011;27089;50.022;7.604;2023-07-29T01:56:22;6.00;;;5.50;;
41343;SDS011;27089;50.022;7.604;2023-07-29T01:58:50;5.93;;;4.77;;
41343;SDS011;27089;50.022;7.604;2023-07-29T02:01:17;5.40;;;4.90;;
41343;SDS011;27089;50.022;7.604;2023-07-29T02:03:44;5.30;;;4.87;;
41343;SDS011;27089;50.022;7.604;2023-07-29T02:06:11;5.33;;;4.77;;
41343;SDS011;27089;50.022;7.604;2023-07-29T02:08:38;6.17;;;5.57;;
41343;SDS011;27089;50.022;7.604;2023-07-29T02:11:05;6.07;;;5.33;;
41343;SDS011;27089;50.022;7.604;2023-07-29T02:13:34;5.80;;;5.30;;
41343;SDS011;27089;50.022;7.604;2023-07-29T02:16:01;4.83;;;4.43;;
41343;SDS011;27089;50.022;7.604;2023-07-29T02:18:29;5.37;;;4.60;;
41343;SDS011;27089;50.022;7.604;2023-07-29T02:20:55;6.53;;;4.87;;
41343;SDS011;27089;50.022;7.604;2023-07-29T02:23:22;5.80;;;5.20;;
41343;SDS011;27089;50.022;7.604;2023-07-29T02:25:49;6.30;;;4.97;;
41343;SDS011;27089;50.022;7.604;2023-07-29T02:28:16;5.33;;;4.50;;
41343;SDS011;27089;50.022;7.604;2023-07-29T02:30:45;5.23;;;4.73;;
41343;SDS011;27089;50.022;7.604;2023-07-29T02:33:14;5.10;;;4.67;;
41343;SDS011;27089;50.022;7.604;2023-07-29T02:35:41;5.73;;;5.03;;
41343;SDS011;27089;50.022;7.604;2023-07-29T02:38:08;6.27;;;4.53;;
41343;SDS011;27089;50.022;7.604;2023-07-29T02:40:35;6.10;;;4.80;;
41343;SDS011;27089;50.022;7.604;2023-07-29T02:43:02;6.10;;;4.73;;
41343;SDS011;27089;50.022;7.604;2023-07-29T02:45:29;5.47;;;4.97;;
41343;SDS011;27089;50.022;7.604;2023-07-29T02:47:57;6.87;;;5.10;;
41343;SDS011;27089;50.022;7.604;2023-07-29T02:50:24;6.10;;;5.03;;
41343;SDS011;27089;50.022;7.604;2023-07-29T02:52:51;5.60;;;5.00;;
41343;SDS011;27089;50.022;7.604;2023-07-29T02:55:18;5.57;;;5.00;;
41343;SDS011;27089;50.022;7.604;2023-07-29T02:57:45;8.73;;;5.70;;
41343;SDS011;27089;50.022;7.604;2023-07-29T03:00:12;6.97;;;4.83;;
41343;SDS011;27089;50.022;7.604;2023-07-29T03:02:40;5.13;;;4.63;;
41343;SDS011;27089;50.022;7.604;2023-07-29T03:05:09;5.97;;;4.70;;
41343;SDS011;27089;50.022;7.604;2023-07-29T03:07:36;6.43;;;5.07;;
41343;SDS011;27089;50.022;7.604;2023-07-29T03:10:03;5.57;;;4.73;;
41343;SDS011;27089;50.022;7.604;2023-07-29T03:12:30;5.17;;;4.67;;
41343;SDS011;27089;50.022;7.604;2023-07-29T03:14:57;5.63;;;5.13;;
41343;SDS011;27089;50.022;7.604;2023-07-29T03:17:25;5.47;;;4.77;;
41343;SDS011;27089;50.022;7.604;2023-07-29T03:19:53;5.87;;;5.27;;
41343;SDS011;27089;50.022;7.604;2023-07-29T03:22:21;5.93;;;5.33;;
41343;SDS011;27089;50.022;7.604;2023-07-29T03:24:48;5.47;;;4.97;;
41343;SDS011;27089;50.022;7.604;2023-07-29T03:27:15;6.07;;;4.90;;
41343;SDS011;27089;50.022;7.604;2023-07-29T03:29:42;6.17;;;5.57;;
41343;SDS011;27089;50.022;7.604;2023-07-29T03:32:09;5.67;;;5.17;;
41343;SDS011;27089;50.022;7.604;2023-07-29T03:34:37;6.27;;;5.67;;
41343;SDS011;27089;50.022;7.604;2023-07-29T03:37:06;7.60;;;5.63;;
41343;SDS011;27089;50.022;7.604;2023-07-29T03:39:34;7.07;;;4.90;;
41343;SDS011;27089;50.022;7.604;2023-07-29T03:42:01;6.77;;;5.60;;
41343;SDS011;27089;50.022;7.604;2023-07-29T03:44:29;6.47;;;5.80;;
41343;SDS011;27089;50.022;7.604;2023-07-29T03:46:56;7.43;;;5.80;;
41343;SDS011;27089;50.022;7.604;2023-07-29T03:49:23;8.63;;;6.20;;
41343;SDS011;27089;50.022;7.604;2023-07-29T03:51:50;6.17;;;5.50;;
41343;SDS011;27089;50.022;7.604;2023-07-29T03:54:17;8.40;;;5.23;;
41343;SDS011;27089;50.022;7.604;2023-07-29T03:56:45;8.67;;;5.30;;
41343;SDS011;27089;50.022;7.604;2023-07-29T03:59:12;7.33;;;5.47;;
41343;SDS011;27089;50.022;7.604;2023-07-29T04:01:39;7.73;;;5.23;;
41343;SDS011;27089;50.022;7.604;2023-07-29T04:04:06;8.83;;;5.57;;
41343;SDS011;27089;50.022;7.604;2023-07-29T04:06:33;5.27;;;4.77;;
41343;SDS011;27089;50.022;7.604;2023-07-29T04:09:00;6.70;;;5.53;;
41343;SDS011;27089;50.022;7.604;2023-07-29T04:11:27;6.50;;;5.47;;
41343;SDS011;27089;50.022;7.604;2023-07-29T04:13:55;6.67;;;4.90;;
41343;SDS011;27089;50.022;7.604;2023-07-29T04:16:22;6.17;;;4.80;;
41343;SDS011;27089;50.022;7.604;2023-07-29T04:18:49;6.77;;;5.00;;
41343;SDS011;27089;50.022;7.604;2023-07-29T04:21:16;7.27;;;4.43;;
41343;SDS011;27089;50.022;7.604;2023-07-29T04:23:43;5.30;;;4.57;;
41343;SDS011;27089;50.022;7.604;2023-07-29T04:26:10;8.43;;;4.73;;
41343;SDS011;27089;50.022;7.604;2023-07-29T04:28:37;10.00;;;4.97;;
41343;SDS011;27089;50.022;7.604;2023-07-29T04:31:06;6.07;;;4.63;;
41343;SDS011;27089;50.022;7.604;2023-07-29T04:33:33;10.17;;;5.03;;
41343;SDS011;27089;50.022;7.604;2023-07-29T04:36:00;6.83;;;4.93;;
41343;SDS011;27089;50.022;7.604;2023-07-29T04:38:31;6.73;;;5.07;;
41343;SDS011;27089;50.022;7.604;2023-07-29T04:40:58;9.53;;;4.87;;
41343;SDS011;27089;50.022;7.604;2023-07-29T04:43:26;7.60;;;4.60;;
41343;SDS011;27089;50.022;7.604;2023-07-29T04:45:54;6.33;;;4.70;;
41343;SDS011;27089;50.022;7.604;2023-07-29T04:48:22;5.10;;;4.70;;
41343;SDS011;27089;50.022;7.604;2023-07-29T04:50:50;5.83;;;4.70;;
41343;SDS011;27089;50.022;7.604;2023-07-29T04:53:16;6.30;;;4.20;;
41343;SDS011;27089;50.022;7.604;2023-07-29T04:55:43;6.00;;;4.27;;
41343;SDS011;27089;50.022;7.604;2023-07-29T04:58:11;5.60;;;4.73;;
41343;SDS011;27089;50.022;7.604;2023-07-29T05:00:38;6.47;;;5.20;;
41343;SDS011;27089;50.022;7.604;2023-07-29T05:03:05;6.07;;;5.17;;
41343;SDS011;27089;50.022;7.604;2023-07-29T05:05:38;7.97;;;5.23;;
41343;SDS011;27089;50.022;7.604;2023-07-29T05:08:05;6.60;;;4.97;;
41343;SDS011;27089;50.022;7.604;2023-07-29T05:10:32;8.80;;;4.87;;
41343;SDS011;27089;50.022;7.604;2023-07-29T05:13:01;9.10;;;5.20;;
41343;SDS011;27089;50.022;7.604;2023-07-29T05:15:28;8.50;;;4.77;;
41343;SDS011;27089;50.022;7.604;2023-07-29T05:17:55;10.87;;;5.17;;
41343;SDS011;27089;50.022;7.604;2023-07-29T05:20:22;5.50;;;4.73;;
41343;SDS011;27089;50.022;7.604;2023-07-29T05:22:52;8.53;;;5.20;;
41343;SDS011;27089;50.022;7.604;2023-07-29T05:25:20;7.50;;;5.20;;
41343;SDS011;27089;50.022;7.604;2023-07-29T05:27:47;5.93;;;5.13;;
41343;SDS011;27089;50.022;7.604;2023-07-29T05:30:14;9.33;;;5.50;;
41343;SDS011;27089;50.022;7.604;2023-07-29T05:32:41;9.23;;;5.30;;
41343;SDS011;27089;50.022;7.604;2023-07-29T05:35:08;7.60;;;5.27;;
41343;SDS011;27089;50.022;7.604;2023-07-29T05:37:37;5.93;;;5.33;;
41343;SDS011;27089;50.022;7.604;2023-07-29T05:40:07;6.70;;;5.90;;
41343;SDS011;27089;50.022;7.604;2023-07-29T05:42:34;6.83;;;5.57;;
41343;SDS011;27089;50.022;7.604;2023-07-29T05:45:01;7.57;;;5.50;;
41343;SDS011;27089;50.022;7.604;2023-07-29T05:47:28;6.40;;;5.33;;
41343;SDS011;27089;50.022;7.604;2023-07-29T05:49:55;7.97;;;6.07;;
41343;SDS011;27089;50.022;7.604;2023-07-29T05:52:22;11.83;;;6.10;;
41343;SDS011;27089;50.022;7.604;2023-07-29T05:54:49;8.67;;;6.30;;
41343;SDS011;27089;50.022;7.604;2023-07-29T05:57:18;8.70;;;6.20;;
41343;SDS011;27089;50.022;7.604;2023-07-29T05:59:45;7.83;;;5.70;;
41343;SDS011;27089;50.022;7.604;2023-07-29T06:02:12;8.20;;;6.00;;
41343;SDS011;27089;50.022;7.604;2023-07-29T06:04:39;8.33;;;6.13;;
41343;SDS011;27089;50.022;7.604;2023-07-29T06:07:06;9.83;;;6.33;;
41343;SDS011;27089;50.022;7.604;2023-07-29T06:09:33;6.83;;;5.90;;
41343;SDS011;27089;50.022;7.604;2023-07-29T06:12:00;8.20;;;6.30;;
41343;SDS011;27089;50.022;7.604;2023-07-29T06:14:28;9.57;;;6.37;;
41343;SDS011;27089;50.022;7.604;2023-07-29T06:16:55;6.87;;;6.17;;
41343;SDS011;27089;50.022;7.604;2023-07-29T06:19:22;7.10;;;6.40;;
41343;SDS011;27089;50.022;7.604;2023-07-29T06:21:49;8.53;;;6.57;;
41343;SDS011;27089;50.022;7.604;2023-07-29T06:24:17;9.57;;;6.27;;
41343;SDS011;27089;50.022;7.604;2023-07-29T06:26:44;7.07;;;5.47;;
41343;SDS011;27089;50.022;7.604;2023-07-29T06:29:11;8.40;;;5.40;;
41343;SDS011;27089;50.022;7.604;2023-07-29T06:31:39;6.20;;;5.60;;
41343;SDS011;27089;50.022;7.604;2023-07-29T06:34:06;6.83;;;5.90;;
41343;SDS011;27089;50.022;7.604;2023-07-29T06:36:33;10.20;;;6.07;;
41343;SDS011;27089;50.022;7.604;2023-07-29T06:39:00;7.67;;;6.37;;
41343;SDS011;27089;50.022;7.604;2023-07-29T06:41:27;7.43;;;6.20;;
41343;SDS011;27089;50.022;7.604;2023-07-29T06:43:54;9.03;;;6.10;;
41343;SDS011;27089;50.022;7.604;2023-07-29T06:46:21;6.47;;;5.78;;
41343;SDS011;27089;50.022;7.604;2023-07-29T06:48:49;7.53;;;5.23;;
41343;SDS011;27089;50.022;7.604;2023-07-29T06:51:16;5.50;;;4.47;;
41343;SDS011;27089;50.022;7.604;2023-07-29T06:53:43;5.13;;;4.47;;
41343;SDS011;27089;50.022;7.604;2023-07-29T06:56:10;4.70;;;3.65;;
41343;SDS011;27089;50.022;7.604;2023-07-29T06:58:37;4.35;;;3.28;;
41343;SDS011;27089;50.022;7.604;2023-07-29T07:01:04;4.15;;;3.65;;
41343;SDS011;27089;50.022;7.604;2023-07-29T07:03:31;4.70;;;3.22;;
41343;SDS011;27089;50.022;7.604;2023-07-29T07:05:59;3.13;;;2.83;;
41343;SDS011;27089;50.022;7.604;2023-07-29T07:08:26;5.32;;;3.00;;
41343;SDS011;27089;50.022;7.604;2023-07-29T07:10:53;4.00;;;2.08;;
41343;SDS011;27089;50.022;7.604;2023-07-29T07:13:20;3.55;;;1.77;;
41343;SDS011;27089;50.022;7.604;2023-07-29T07:15:47;2.70;;;1.55;;
41343;SDS011;27089;50.022;7.604;2023-07-29T07:18:14;1.48;;;1.38;;
41343;SDS011;27089;50.022;7.604;2023-07-29T07:20:41;2.70;;;1.40;;
41343;SDS011;27089;50.022;7.604;2023-07-29T07:23:09;2.03;;;1.55;;
41343;SDS011;27089;50.022;7.604;2023-07-29T07:25:38;3.47;;;1.20;;
41343;SDS011;27089;50.022;7.604;2023-07-29T07:28:07;1.40;;;1.30;;
41343;SDS011;27089;50.022;7.604;2023-07-29T07:30:34;1.90;;;1.30;;
41343;SDS011;27089;50.022;7.604;2023-07-29T07:33:01;2.22;;;1.20;;
41343;SDS011;27089;50.022;7.604;2023-07-29T07:35:28;3.05;;;1.20;;
41343;SDS011;27089;50.022;7.604;2023-07-29T07:37:55;1.80;;;1.20;;
41343;SDS011;27089;50.022;7.604;2023-07-29T07:40:25;1.45;;;1.30;;
41343;SDS011;27089;50.022;7.604;2023-07-29T07:42:52;2.15;;;1.65;;
41343;SDS011;27089;50.022;7.604;2023-07-29T07:45:19;1.60;;;1.25;;
41343;SDS011;27089;50.022;7.604;2023-07-29T07:47:46;1.92;;;1.30;;
41343;SDS011;27089;50.022;7.604;2023-07-29T07:50:13;1.67;;;1.00;;
41343;SDS011;27089;50.022;7.604;2023-07-29T07:52:40;1.23;;;1.13;;
41343;SDS011;27089;50.022;7.604;2023-07-29T07:55:07;1.98;;;1.30;;
41343;SDS011;27089;50.022;7.604;2023-07-29T07:57:36;2.17;;;1.52;;
41343;SDS011;27089;50.022;7.604;2023-07-29T08:00:04;2.35;;;1.50;;
41343;SDS011;27089;50.022;7.604;2023-07-29T08:02:33;3.47;;;1.30;;
41343;SDS011;27089;50.022;7.604;2023-07-29T08:05:00;1.42;;;1.13;;
41343;SDS011;27089;50.022;7.604;2023-07-29T08:07:27;2.78;;;1.42;;
41343;SDS011;27089;50.022;7.604;2023-07-29T08:09:54;1.70;;;1.23;;
41343;SDS011;27089;50.022;7.604;2023-07-29T08:12:21;2.42;;;1.27;;
41343;SDS011;27089;50.022;7.604;2023-07-29T08:14:49;1.50;;;1.38;;
41343;SDS011;27089;50.022;7.604;2023-07-29T08:17:16;1.60;;;1.20;;
41343;SDS011;27089;50.022;7.604;2023-07-29T08:19:43;1.45;;;1.10;;
41343;SDS011;27089;50.022;7.604;2023-07-29T08:22:10;2.70;;;1.30;;
41343;SDS011;27089;50.022;7.604;2023-07-29T08:24:37;2.33;;;1.20;;
41343;SDS011;27089;50.022;7.604;2023-07-29T08:27:04;1.42;;;1.20;;
41343;SDS011;27089;50.022;7.604;2023-07-29T08:29:32;2.75;;;1.30;;
41343;SDS011;27089;50.022;7.604;2023-07-29T08:32:00;1.55;;;1.40;;
41343;SDS011;27089;50.022;7.604;2023-07-29T08:34:27;1.58;;;1.10;;
41343;SDS011;27089;50.022;7.604;2023-07-29T08:36:54;1.83;;;1.30;;
41343;SDS011;27089;50.022;7.604;2023-07-29T08:39:21;2.50;;;1.20;;
41343;SDS011;27089;50.022;7.604;2023-07-29T08:41:49;2.45;;;1.20;;
41343;SDS011;27089;50.022;7.604;2023-07-29T08:44:21;1.30;;;1.10;;
41343;SDS011;27089;50.022;7.604;2023-07-29T08:46:49;1.17;;;1.02;;
41343;SDS011;27089;50.022;7.604;2023-07-29T08:49:17;0.88;;;0.88;;
41343;SDS011;27089;50.022;7.604;2023-07-29T08:51:45;1.30;;;1.20;;
41343;SDS011;27089;50.022;7.604;2023-07-29T08:54:13;1.25;;;1.15;;
41343;SDS011;27089;50.022;7.604;2023-07-29T08:56:41;2.08;;;1.48;;
41343;SDS011;27089;50.022;7.604;2023-07-29T08:59:09;1.13;;;0.85;;
41343;SDS011;27089;50.022;7.604;2023-07-29T09:01:37;1.40;;;1.20;;
41343;SDS011;27089;50.022;7.604;2023-07-29T09:04:05;1.40;;;1.05;;
41343;SDS011;27089;50.022;7.604;2023-07-29T09:06:33;1.85;;;1.55;;
41343;SDS011;27089;50.022;7.604;2023-07-29T09:09:03;1.95;;;1.13;;
41343;SDS011;27089;50.022;7.604;2023-07-29T09:11:30;2.08;;;1.35;;
41343;SDS011;27089;50.022;7.604;2023-07-29T09:13:58;2.60;;;1.52;;
41343;SDS011;27089;50.022;7.604;2023-07-29T09:16:25;2.65;;;1.20;;
41343;SDS011;27089;50.022;7.604;2023-07-29T09:18:52;1.55;;;1.40;;
41343;SDS011;27089;50.022;7.604;2023-07-29T09:21:22;1.48;;;1.30;;
41343;SDS011;27089;50.022;7.604;2023-07-29T09:23:51;2.22;;;1.60;;
41343;SDS011;27089;50.022;7.604;2023-07-29T09:26:21;1.45;;;1.13;;
41343;SDS011;27089;50.022;7.604;2023-07-29T09:28:51;2.72;;;1.25;;
41343;SDS011;27089;50.022;7.604;2023-07-29T09:31:19;2.80;;;1.70;;
41343;SDS011;27089;50.022;7.604;2023-07-29T09:33:47;1.88;;;1.20;;
41343;SDS011;27089;50.022;7.604;2023-07-29T09:36:14;2.65;;;1.33;;
41343;SDS011;27089;50.022;7.604;2023-07-29T09:38:42;2.85;;;1.10;;
41343;SDS011;27089;50.022;7.604;2023-07-29T09:41:12;1.70;;;1.20;;
41343;SDS011;27089;50.022;7.604;2023-07-29T09:43:41;1.95;;;1.27;;
41343;SDS011;27089;50.022;7.604;2023-07-29T09:46:08;1.42;;;1.23;;
41343;SDS011;27089;50.022;7.604;2023-07-29T09:48:35;1.17;;;1.10;;
41343;SDS011;27089;50.022;7.604;2023-07-29T09:51:14;1.45;;;1.25;;
41343;SDS011;27089;50.022;7.604;2023-07-29T09:53:42;2.70;;;1.17;;
41343;SDS011;27089;50.022;7.604;2023-07-29T09:56:10;1.40;;;1.27;;
41343;SDS011;27089;50.022;7.604;2023-07-29T09:58:38;2.33;;;1.20;;
41343;SDS011;27089;50.022;7.604;2023-07-29T10:01:05;2.40;;;1.40;;
41343;SDS011;27089;50.022;7.604;2023-07-29T10:03:33;4.15;;;3.85;;
41343;SDS011;27089;50.022;7.604;2023-07-29T10:06:02;1.10;;;1.00;;
41343;SDS011;27089;50.022;7.604;2023-07-29T10:08:30;2.38;;;1.05;;
41343;SDS011;27089;50.022;7.604;2023-07-29T10:10:58;1.08;;;0.98;;
41343;SDS011;27089;50.022;7.604;2023-07-29T10:13:26;3.15;;;1.10;;
41343;SDS011;27089;50.022;7.604;2023-07-29T10:15:54;3.35;;;1.40;;
41343;SDS011;27089;50.022;7.604;2023-07-29T10:18:22;1.38;;;1.00;;
41343;SDS011;27089;50.022;7.604;2023-07-29T10:20:50;1.73;;;1.30;;
41343;SDS011;27089;50.022;7.604;2023-07-29T10:23:18;1.48;;;1.20;;
41343;SDS011;27089;50.022;7.604;2023-07-29T10:25:49;1.83;;;1.30;;
41343;SDS011;27089;50.022;7.604;2023-07-29T10:28:29;1.90;;;1.30;;
41343;SDS011;27089;50.022;7.604;2023-07-29T10:30:59;1.65;;;1.40;;
41343;SDS011;27089;50.022;7.604;2023-07-29T10:33:26;2.58;;;1.25;;
41343;SDS011;27089;50.022;7.604;2023-07-29T10:35:53;1.45;;;1.20;;
41343;SDS011;27089;50.022;7.604;2023-07-29T10:38:22;2.45;;;1.30;;
41343;SDS011;27089;50.022;7.604;2023-07-29T10:40:51;1.33;;;1.23;;
41343;SDS011;27089;50.022;7.604;2023-07-29T10:43:24;4.35;;;1.40;;
41343;SDS011;27089;50.022;7.604;2023-07-29T10:45:52;1.70;;;1.33;;
41343;SDS011;27089;50.022;7.604;2023-07-29T10:48:41;1.92;;;1.15;;
41343;SDS011;27089;50.022;7.604;2023-07-29T10:51:27;1.20;;;1.10;;
41343;SDS011;27089;50.022;7.604;2023-07-29T10:54:00;2.47;;;1.27;;
41343;SDS011;27089;50.022;7.604;2023-07-29T10:56:28;4.93;;;3.63;;
41343;SDS011;27089;50.022;7.604;2023-07-29T10:58:57;3.80;;;1.38;;
41343;SDS011;27089;50.022;7.604;2023-07-29T11:01:28;3.15;;;1.27;;
41343;SDS011;27089;50.022;7.604;2023-07-29T11:07:01;1.45;;;1.35;;
41343;SDS011;27089;50.022;7.604;2023-07-29T11:09:55;2.55;;;1.30;;
41343;SDS011;27089;50.022;7.604;2023-07-29T11:12:36;1.48;;;1.35;;
41343;SDS011;27089;50.022;7.604;2023-07-29T11:15:11;3.15;;;1.52;;
41343;SDS011;27089;50.022;7.604;2023-07-29T11:17:40;1.40;;;1.30;;
41343;SDS011;27089;50.022;7.604;2023-07-29T11:20:10;1.17;;;1.08;;
41343;SDS011;27089;50.022;7.604;2023-07-29T11:22:38;1.85;;;1.38;;
41343;SDS011;27089;50.022;7.604;2023-07-29T11:25:06;1.23;;;1.13;;
41343;SDS011;27089;50.022;7.604;2023-07-29T11:27:34;1.77;;;1.48;;
41343;SDS011;27089;50.022;7.604;2023-07-29T11:30:02;2.40;;;1.55;;
41343;SDS011;27089;50.022;7.604;2023-07-29T11:32:31;2.92;;;1.48;;
41343;SDS011;27089;50.022;7.604;2023-07-29T11:35:01;2.67;;;2.28;;
41343;SDS011;27089;50.022;7.604;2023-07-29T11:37:30;2.08;;;1.50;;
41343;SDS011;27089;50.022;7.604;2023-07-29T11:39:59;1.67;;;1.35;;
41343;SDS011;27089;50.022;7.604;2023-07-29T11:42:26;1.83;;;1.20;;
41343;SDS011;27089;50.022;7.604;2023-07-29T11:44:55;3.13;;;1.17;;
41343;SDS011;27089;50.022;7.604;2023-07-29T11:47:23;2.75;;;1.58;;
41343;SDS011;27089;50.022;7.604;2023-07-29T11:49:51;3.35;;;1.35;;
41343;SDS011;27089;50.022;7.604;2023-07-29T11:52:18;2.22;;;1.50;;
41343;SDS011;27089;50.022;7.604;2023-07-29T11:54:47;6.18;;;1.95;;
41343;SDS011;27089;50.022;7.604;2023-07-29T11:57:16;3.67;;;1.83;;
41343;SDS011;27089;50.022;7.604;2023-07-29T11:59:44;2.17;;;1.70;;
41343;SDS011;27089;50.022;7.604;2023-07-29T12:02:14;1.38;;;1.27;;
41343;SDS011;27089;50.022;7.604;2023-07-29T12:04:43;5.47;;;1.73;;
41343;SDS011;27089;50.022;7.604;2023-07-29T12:07:11;2.63;;;1.50;;
41343;SDS011;27089;50.022;7.604;2023-07-29T12:09:39;4.07;;;1.70;;
41343;SDS011;27089;50.022;7.604;2023-07-29T12:12:09;4.03;;;1.90;;
41343;SDS011;27089;50.022;7.604;2023-07-29T12:14:36;2.65;;;1.40;;
41343;SDS011;27089;50.022;7.604;2023-07-29T12:17:04;2.05;;;1.70;;
41343;SDS011;27089;50.022;7.604;2023-07-29T12:19:32;2.50;;;1.73;;
41343;SDS011;27089;50.022;7.604;2023-07-29T12:22:00;1.90;;;1.60;;
41343;SDS011;27089;50.022;7.604;2023-07-29T12:24:29;2.40;;;1.50;;
41343;SDS011;27089;50.022;7.604;2023-07-29T12:26:56;2.28;;;1.45;;
41343;SDS011;27089;50.022;7.604;2023-07-29T12:29:25;2.17;;;1.50;;
41343;SDS011;27089;50.022;7.604;2023-07-29T12:31:56;2.70;;;1.30;;
41343;SDS011;27089;50.022;7.604;2023-07-29T12:34:25;1.90;;;1.40;;
41343;SDS011;27089;50.022;7.604;2023-07-29T12:36:54;1.80;;;1.50;;
41343;SDS011;27089;50.022;7.604;2023-07-29T12:39:22;1.45;;;1.35;;
41343;SDS011;27089;50.022;7.604;2023-07-29T12:41:52;2.22;;;1.50;;
41343;SDS011;27089;50.022;7.604;2023-07-29T12:44:20;1.63;;;1.42;;
41343;SDS011;27089;50.022;7.604;2023-07-29T12:46:50;1.45;;;1.35;;
41343;SDS011;27089;50.022;7.604;2023-07-29T12:49:18;1.58;;;1.30;;
41343;SDS011;27089;50.022;7.604;2023-07-29T12:51:45;1.40;;;1.30;;
41343;SDS011;27089;50.022;7.604;2023-07-29T12:54:12;1.40;;;1.27;;
41343;SDS011;27089;50.022;7.604;2023-07-29T12:56:39;1.48;;;1.38;;
41343;SDS011;27089;50.022;7.604;2023-07-29T12:59:06;1.83;;;1.60;;
41343;SDS011;27089;50.022;7.604;2023-07-29T13:01:33;1.40;;;1.30;;
41343;SDS011;27089;50.022;7.604;2023-07-29T13:04:01;1.70;;;1.25;;
41343;SDS011;27089;50.022;7.604;2023-07-29T13:06:29;2.58;;;1.40;;
41343;SDS011;27089;50.022;7.604;2023-07-29T13:08:56;1.70;;;1.38;;
41343;SDS011;27089;50.022;7.604;2023-07-29T13:11:22;2.90;;;1.75;;
41343;SDS011;27089;50.022;7.604;2023-07-29T13:13:51;1.80;;;1.60;;
41343;SDS011;27089;50.022;7.604;2023-07-29T13:16:18;1.40;;;1.27;;
41343;SDS011;27089;50.022;7.604;2023-07-29T13:18:45;2.83;;;1.50;;
41343;SDS011;27089;50.022;7.604;2023-07-29T13:21:13;1.90;;;1.40;;
41343;SDS011;27089;50.022;7.604;2023-07-29T13:23:40;1.60;;;1.40;;
41343;SDS011;27089;50.022;7.604;2023-07-29T13:26:07;2.72;;;1.45;;
41343;SDS011;27089;50.022;7.604;2023-07-29T13:28:34;2.63;;;1.45;;
41343;SDS011;27089;50.022;7.604;2023-07-29T13:31:01;2.80;;;1.50;;
41343;SDS011;27089;50.022;7.604;2023-07-29T13:33:28;2.50;;;1.38;;
41343;SDS011;27089;50.022;7.604;2023-07-29T13:35:58;1.55;;;1.45;;
41343;SDS011;27089;50.022;7.604;2023-07-29T13:38:28;3.70;;;1.42;;
41343;SDS011;27089;50.022;7.604;2023-07-29T13:40:55;1.63;;;1.50;;
41343;SDS011;27089;50.022;7.604;2023-07-29T13:43:22;2.38;;;1.40;;
41343;SDS011;27089;50.022;7.604;2023-07-29T13:45:49;3.50;;;1.52;;
41343;SDS011;27089;50.022;7.604;2023-07-29T13:48:16;2.42;;;1.40;;
41343;SDS011;27089;50.022;7.604;2023-07-29T13:50:44;7.28;;;3.30;;
41343;SDS011;27089;50.022;7.604;2023-07-29T13:53:11;3.50;;;1.98;;
41343;SDS011;27089;50.022;7.604;2023-07-29T13:55:39;1.80;;;1.40;;
41343;SDS011;27089;50.022;7.604;2023-07-29T13:58:06;3.55;;;1.70;;
41343;SDS011;27089;50.022;7.604;2023-07-29T14:00:33;1.48;;;1.20;;
41343;SDS011;27089;50.022;7.604;2023-07-29T14:03:00;1.30;;;1.20;;
41343;SDS011;27089;50.022;7.604;2023-07-29T14:05:27;1.85;;;1.08;;
41343;SDS011;27089;50.022;7.604;2023-07-29T14:07:54;2.58;;;1.50;;
41343;SDS011;27089;50.022;7.604;2023-07-29T14:10:21;1.73;;;1.50;;
41343;SDS011;27089;50.022;7.604;2023-07-29T14:12:49;1.92;;;1.38;;
41343;SDS011;27089;50.022;7.604;2023-07-29T14:15:17;1.88;;;1.38;;
41343;SDS011;27089;50.022;7.604;2023-07-29T14:17:44;2.00;;;1.58;;
41343;SDS011;27089;50.022;7.604;2023-07-29T14:20:11;1.85;;;1.55;;
41343;SDS011;27089;50.022;7.604;2023-07-29T14:22:38;2.05;;;1.50;;
41343;SDS011;27089;50.022;7.604;2023-07-29T14:25:05;3.15;;;1.38;;
41343;SDS011;27089;50.022;7.604;2023-07-29T14:27:34;2.28;;;1.27;;
41343;SDS011;27089;50.022;7.604;2023-07-29T14:30:02;3.15;;;1.50;;
41343;SDS011;27089;50.022;7.604;2023-07-29T14:32:29;2.50;;;1.40;;
41343;SDS011;27089;50.022;7.604;2023-07-29T14:34:56;3.05;;;1.60;;
41343;SDS011;27089;50.022;7.604;2023-07-29T14:37:29;1.33;;;1.23;;
41343;SDS011;27089;50.022;7.604;2023-07-29T14:39:57;1.50;;;1.23;;
41343;SDS011;27089;50.022;7.604;2023-07-29T14:42:24;1.40;;;1.30;;
41343;SDS011;27089;50.022;7.604;2023-07-29T14:44:50;2.17;;;1.23;;
41343;SDS011;27089;50.022;7.604;2023-07-29T14:47:19;1.25;;;1.15;;
41343;SDS011;27089;50.022;7.604;2023-07-29T14:49:46;1.85;;;1.30;;
41343;SDS011;27089;50.022;7.604;2023-07-29T14:52:13;2.42;;;1.40;;
41343;SDS011;27089;50.022;7.604;2023-07-29T14:54:40;1.80;;;1.60;;
41343;SDS011;27089;50.022;7.604;2023-07-29T14:57:07;1.23;;;1.13;;